createdAt,value
2018-07-20T00:00:13.779Z,100897.61
2018-07-20T00:02:18.545Z,100899.47
2018-07-20T00:04:23.191Z,100896.38
2018-07-20T00:06:27.530Z,100895.84
2018-07-20T00:08:32.347Z,100888.85
2018-07-20T00:10:37.161Z,100887.49
2018-07-20T00:12:41.456Z,100884.97
2018-07-20T00:14:46.180Z,100880.97
2018-07-20T00:16:50.854Z,100884.41
2018-07-20T00:18:55.430Z,100884.41
2018-07-20T00:20:59.716Z,100886.02
2018-07-20T00:23:04.367Z,100886.88
2018-07-20T00:25:08.981Z,100884.25
2018-07-20T00:27:13.685Z,100881.14
2018-07-20T00:29:18.609Z,100878.42
2018-07-20T00:31:23.295Z,100860.95
2018-07-20T00:33:27.929Z,100878.48
2018-07-20T00:35:32.593Z,100876.73
2018-07-20T00:37:37.274Z,100876.23
2018-07-20T00:39:41.911Z,100870.34
2018-07-20T00:41:46.607Z,100876.39
2018-07-20T00:43:50.952Z,100868.45
2018-07-20T00:45:55.617Z,100871.48
2018-07-20T00:48:00.490Z,100870.11
2018-07-20T00:50:05.442Z,100865.79
2018-07-20T00:52:10.830Z,100860.55
2018-07-20T00:54:15.474Z,100861.31
2018-07-20T00:56:20.132Z,100861.20
2018-07-20T00:58:24.854Z,100857.27
2018-07-20T01:00:29.541Z,100867.66
2018-07-20T01:02:34.331Z,100855.20
2018-07-20T01:04:39.065Z,100849.45
2018-07-20T01:06:43.719Z,100856.84
2018-07-20T01:08:48.776Z,100853.21
2018-07-20T01:10:53.448Z,100789.41
2018-07-20T01:12:58.611Z,100851.46
2018-07-20T01:15:03.273Z,100856.68
2018-07-20T01:17:07.925Z,100852.69
2018-07-20T01:19:12.602Z,100858.31
2018-07-20T01:21:17.256Z,100854.75
2018-07-20T01:23:22.047Z,100849.78
2018-07-20T01:25:26.668Z,100850.75
2018-07-20T01:27:31.415Z,100853.45
2018-07-20T01:29:36.139Z,100850.91
2018-07-20T01:31:40.822Z,100850.41
2018-07-20T01:33:45.632Z,100847.85
2018-07-20T01:35:50.297Z,100842.54
2018-07-20T01:37:55.101Z,100847.66
2018-07-20T01:39:59.833Z,100841.94
2018-07-20T01:42:04.555Z,100847.83
2018-07-20T01:44:09.722Z,100844.06
2018-07-20T01:46:14.495Z,100841.44
2018-07-20T01:48:18.931Z,100845.28
2018-07-20T01:50:23.629Z,100844.80
2018-07-20T01:52:28.277Z,100846.92
2018-07-20T01:54:32.945Z,100842.55
2018-07-20T01:56:37.734Z,100845.12
2018-07-20T01:58:42.434Z,100842.95
2018-07-20T02:00:46.763Z,100845.03
2018-07-20T02:02:51.398Z,100837.72
2018-07-20T02:04:56.047Z,100832.95
2018-07-20T02:07:00.674Z,100830.75
2018-07-20T02:09:08.344Z,100828.60
2018-07-20T02:11:12.997Z,100827.17
2018-07-20T02:13:17.675Z,100821.48
2018-07-20T02:15:22.278Z,100820.95
2018-07-20T02:17:26.560Z,100814.73
2018-07-20T02:19:31.268Z,100822.15
2018-07-20T02:21:35.967Z,100819.50
2018-07-20T02:23:40.673Z,100821.56
2018-07-20T02:25:45.491Z,100823.99
2018-07-20T02:27:49.871Z,100818.27
2018-07-20T02:29:54.606Z,100819.20
2018-07-20T02:31:59.259Z,100818.30
2018-07-20T02:34:04.027Z,100819.20
2018-07-20T02:36:08.673Z,100819.63
2018-07-20T02:38:13.367Z,100817.03
2018-07-20T02:40:18.029Z,100819.98
2018-07-20T02:42:22.723Z,100814.72
2018-07-20T02:44:27.393Z,100809.53
2018-07-20T02:46:31.720Z,100809.92
2018-07-20T02:48:36.392Z,100812.12
2018-07-20T02:52:42.863Z,100800.77
2018-07-20T02:54:47.571Z,100803.78
2018-07-20T02:56:52.212Z,100805.53
2018-07-20T02:58:56.874Z,100805.92
2018-07-20T03:01:01.544Z,100809.81
2018-07-20T03:03:06.192Z,100802.40
2018-07-20T03:05:10.839Z,100798.05
2018-07-20T03:07:15.499Z,100792.45
2018-07-20T03:09:20.335Z,100795.91
2018-07-20T03:11:24.982Z,100798.53
2018-07-20T03:13:29.611Z,100797.61
2018-07-20T03:15:34.202Z,100798.00
2018-07-20T03:17:38.893Z,100796.22
2018-07-20T03:19:43.357Z,100795.66
2018-07-20T03:21:48.202Z,100782.15
2018-07-20T03:23:52.859Z,100794.87
2018-07-20T03:25:57.537Z,100797.03
2018-07-20T03:28:02.222Z,100796.05
2018-07-20T03:30:07.168Z,100797.01
2018-07-20T03:32:12.246Z,100795.80
2018-07-20T03:34:17.018Z,100797.01
2018-07-20T03:36:21.710Z,100795.34
2018-07-20T03:38:26.368Z,100799.69
2018-07-20T03:40:31.022Z,100797.52
2018-07-20T03:42:35.684Z,100796.25
2018-07-20T03:44:40.352Z,100798.88
2018-07-20T03:46:44.982Z,100792.33
2018-07-20T03:48:50.361Z,100795.83
2018-07-20T03:50:54.693Z,100795.80
2018-07-20T03:52:59.017Z,100795.74
2018-07-20T03:55:03.719Z,100800.95
2018-07-20T03:57:08.041Z,100793.99
2018-07-20T03:59:12.467Z,100783.95
2018-07-20T04:01:17.139Z,100788.44
2018-07-20T04:03:21.752Z,100790.13
2018-07-20T04:05:26.413Z,100791.83
2018-07-20T04:07:31.086Z,100784.07
2018-07-20T04:09:35.748Z,100784.07
2018-07-20T04:11:40.851Z,100781.14
2018-07-20T04:13:45.677Z,100779.45
2018-07-20T04:15:50.352Z,100773.87
2018-07-20T04:17:55.054Z,100776.91
2018-07-20T04:19:59.899Z,100779.48
2018-07-20T04:22:04.230Z,100776.44
2018-07-20T04:24:08.905Z,100782.44
2018-07-20T04:26:13.637Z,100772.43
2018-07-20T04:28:18.246Z,100778.09
2018-07-20T04:30:23.012Z,100776.44
2018-07-20T04:32:27.361Z,100782.52
2018-07-20T04:34:32.076Z,100772.55
2018-07-20T04:36:36.908Z,100772.15
2018-07-20T04:38:41.628Z,100757.30
2018-07-20T04:40:46.533Z,100760.98
2018-07-20T04:42:51.189Z,100766.59
2018-07-20T04:44:56.015Z,100766.17
2018-07-20T04:47:00.647Z,100769.69
2018-07-20T04:49:05.372Z,100774.06
2018-07-20T04:51:10.082Z,100776.25
2018-07-20T04:53:14.786Z,100774.06
2018-07-20T04:55:19.538Z,100772.08
2018-07-20T04:57:24.279Z,100776.20
2018-07-20T04:59:28.950Z,100767.44
2018-07-20T05:01:33.688Z,100770.52
2018-07-20T05:04:08.847Z,100770.91
2018-07-20T05:06:14.554Z,100775.19
2018-07-20T05:08:19.222Z,100771.30
2018-07-20T05:10:23.920Z,100770.41
2018-07-20T05:12:28.599Z,100772.99
2018-07-20T05:14:33.268Z,100772.15
2018-07-20T05:16:38.032Z,100770.84
2018-07-20T05:18:42.727Z,100769.95
2018-07-20T05:20:47.356Z,100763.49
2018-07-20T05:22:52.056Z,100767.41
2018-07-20T05:24:56.711Z,100765.77
2018-07-20T05:27:01.364Z,100768.02
2018-07-20T05:29:06.123Z,100764.19
2018-07-20T05:31:10.865Z,100748.55
2018-07-20T05:33:16.092Z,100756.51
2018-07-20T05:35:20.783Z,100754.36
2018-07-20T05:37:25.411Z,100758.31
2018-07-20T05:39:30.238Z,100755.34
2018-07-20T05:41:35.049Z,100750.66
2018-07-20T05:43:40.956Z,100752.05
2018-07-20T05:45:45.942Z,100753.50
2018-07-20T05:47:50.993Z,100757.37
2018-07-20T05:49:55.883Z,100756.52
2018-07-20T05:52:00.595Z,100762.73
2018-07-20T05:54:05.263Z,100760.11
2018-07-20T05:56:09.954Z,100763.17
2018-07-20T05:58:14.594Z,100765.91
2018-07-20T06:00:19.325Z,100758.13
2018-07-20T06:02:23.941Z,100759.94
2018-07-20T06:04:28.895Z,100758.24
2018-07-20T06:06:33.742Z,100765.18
2018-07-20T06:08:38.427Z,100759.77
2018-07-20T06:10:43.224Z,100755.45
2018-07-20T06:12:48.030Z,100759.88
2018-07-20T06:14:52.865Z,100756.94
2018-07-20T06:16:57.643Z,100754.36
2018-07-20T06:19:02.749Z,100745.67
2018-07-20T06:21:07.858Z,100754.93
2018-07-20T06:23:12.526Z,100755.58
2018-07-20T06:25:17.227Z,100765.13
2018-07-20T06:27:21.905Z,100762.11
2018-07-20T06:29:26.589Z,100754.77
2018-07-20T06:31:31.642Z,100751.90
2018-07-20T06:33:36.334Z,100754.07
2018-07-20T06:35:41.025Z,100758.84
2018-07-20T06:37:45.764Z,100762.06
2018-07-20T06:39:50.420Z,100763.91
2018-07-20T06:41:55.083Z,100762.63
2018-07-20T06:43:59.904Z,100770.03
2018-07-20T06:46:04.840Z,100769.20
2018-07-20T06:48:09.649Z,100763.20
2018-07-20T06:50:17.604Z,100780.66
2018-07-20T06:52:22.538Z,100773.67
2018-07-20T06:54:26.943Z,100775.84
2018-07-20T06:56:31.693Z,100776.30
2018-07-20T06:58:36.337Z,100774.14
2018-07-20T07:00:40.797Z,100769.89
2018-07-20T07:02:45.692Z,100776.88
2018-07-20T07:04:50.478Z,100770.43
2018-07-20T07:06:55.274Z,100761.35
2018-07-20T07:09:00.108Z,100764.84
2018-07-20T07:11:04.893Z,100769.67
2018-07-20T07:13:09.621Z,100760.61
2018-07-20T07:15:14.526Z,100765.05
2018-07-20T07:17:19.222Z,100766.81
2018-07-20T07:19:23.903Z,100763.88
2018-07-20T07:21:28.614Z,100750.02
2018-07-20T07:23:34.243Z,100763.06
2018-07-20T07:25:38.936Z,100763.48
2018-07-20T07:27:43.768Z,100758.31
2018-07-20T07:29:48.443Z,100761.89
2018-07-20T07:31:53.399Z,100764.53
2018-07-20T07:33:58.126Z,100760.78
2018-07-20T07:36:02.817Z,100761.64
2018-07-20T07:40:15.955Z,100757.72
2018-07-20T07:42:20.265Z,100745.99
2018-07-20T07:44:24.917Z,100762.15
2018-07-20T07:46:29.580Z,100749.09
2018-07-20T07:48:34.191Z,100753.92
2018-07-20T07:50:38.846Z,100754.48
2018-07-20T07:52:43.577Z,100746.72
2018-07-20T07:54:48.233Z,100755.86
2018-07-20T07:56:52.884Z,100754.58
2018-07-20T07:58:57.579Z,100755.50
2018-07-20T08:01:02.312Z,100753.38
2018-07-20T08:03:07.191Z,100758.60
2018-07-20T08:05:11.973Z,100759.47
2018-07-20T08:07:16.719Z,100740.71
2018-07-20T08:09:21.425Z,100760.78
2018-07-20T08:11:26.145Z,100754.72
2018-07-20T08:13:30.859Z,100755.58
2018-07-20T08:15:35.717Z,100757.77
2018-07-20T08:17:40.504Z,100757.38
2018-07-20T08:19:45.279Z,100756.51
2018-07-20T08:21:49.924Z,100753.47
2018-07-20T08:23:54.787Z,100747.38
2018-07-20T08:25:59.653Z,100755.67
2018-07-20T08:28:04.607Z,100745.22
2018-07-20T08:30:09.435Z,100748.27
2018-07-20T08:32:13.998Z,100745.20
2018-07-20T08:34:19.093Z,100752.18
2018-07-20T08:36:23.883Z,100746.06
2018-07-20T08:38:28.798Z,100744.33
2018-07-20T08:40:33.637Z,100739.50
2018-07-20T08:42:38.397Z,100739.94
2018-07-20T08:44:43.153Z,100739.97
2018-07-20T08:46:47.870Z,100736.47
2018-07-20T08:48:52.494Z,100734.31
2018-07-20T08:50:57.233Z,100724.70
2018-07-20T08:53:01.949Z,100728.58
2018-07-20T08:55:06.657Z,100730.33
2018-07-20T08:57:11.356Z,100735.08
2018-07-20T08:59:16.086Z,100726.33
2018-07-20T09:01:20.817Z,100724.56
2018-07-20T09:03:25.607Z,100734.55
2018-07-20T09:05:30.301Z,100736.20
2018-07-20T09:07:35.083Z,100742.23
2018-07-20T09:09:39.372Z,100731.69
2018-07-20T09:11:44.253Z,100736.44
2018-07-20T09:13:49.317Z,100733.40
2018-07-20T09:15:53.892Z,100722.53
2018-07-20T09:17:58.557Z,100721.19
2018-07-20T09:20:03.367Z,100726.36
2018-07-20T09:22:08.349Z,100719.92
2018-07-20T09:24:12.742Z,100713.33
2018-07-20T09:26:17.518Z,100725.37
2018-07-20T09:28:22.372Z,100720.11
2018-07-20T09:30:27.161Z,100720.28
2018-07-20T09:32:32.196Z,100722.03
2018-07-20T09:34:36.970Z,100716.72
2018-07-20T09:36:41.737Z,100721.08
2018-07-20T09:38:46.643Z,100679.36
2018-07-20T09:40:51.309Z,100723.18
2018-07-20T09:42:56.380Z,100723.53
2018-07-20T09:45:00.975Z,100725.81
2018-07-20T09:47:05.844Z,100715.36
2018-07-20T09:49:10.523Z,100715.23
2018-07-20T09:51:15.248Z,100710.08
2018-07-20T09:53:19.892Z,100717.64
2018-07-20T09:55:24.542Z,100720.86
2018-07-20T09:57:29.236Z,100717.13
2018-07-20T09:59:34.162Z,100717.06
2018-07-20T10:01:38.747Z,100710.86
2018-07-20T10:03:43.450Z,100701.44
2018-07-20T10:05:48.421Z,100717.50
2018-07-20T10:07:53.042Z,100709.94
2018-07-20T10:09:57.740Z,100717.91
2018-07-20T10:12:02.406Z,100709.98
2018-07-20T10:14:07.385Z,100719.97
2018-07-20T10:16:12.019Z,100711.14
2018-07-20T10:18:17.031Z,100707.29
2018-07-20T10:20:21.708Z,100708.58
2018-07-20T10:22:26.405Z,100711.80
2018-07-20T10:24:31.106Z,100714.77
2018-07-20T10:26:35.896Z,100709.52
2018-07-20T10:28:40.611Z,100705.83
2018-07-20T10:30:45.349Z,100708.41
2018-07-20T10:32:50.100Z,100712.26
2018-07-20T10:34:54.764Z,100706.17
2018-07-20T10:36:59.535Z,100709.66
2018-07-20T10:39:06.472Z,100700.59
2018-07-20T10:41:11.124Z,100701.73
2018-07-20T10:43:15.824Z,100701.93
2018-07-20T10:45:20.575Z,100704.73
2018-07-20T10:47:25.486Z,100705.33
2018-07-20T10:49:30.231Z,100701.43
2018-07-20T10:51:35.501Z,100710.34
2018-07-20T10:53:40.256Z,100697.87
2018-07-20T10:55:44.975Z,100700.55
2018-07-20T10:57:49.726Z,100699.67
2018-07-20T10:59:54.465Z,100691.14
2018-07-20T11:01:59.248Z,100691.55
2018-07-20T11:04:04.198Z,100694.70
2018-07-20T11:06:08.878Z,100689.83
2018-07-20T11:08:13.580Z,100694.59
2018-07-20T11:10:18.369Z,100686.72
2018-07-20T11:12:23.108Z,100684.40
2018-07-20T11:14:27.767Z,100689.27
2018-07-20T11:16:32.397Z,100684.52
2018-07-20T11:18:37.142Z,100690.94
2018-07-20T11:20:41.766Z,100682.88
2018-07-20T11:22:46.433Z,100684.37
2018-07-20T11:24:51.649Z,100682.23
2018-07-20T11:26:56.362Z,100683.22
2018-07-20T11:29:01.085Z,100690.43
2018-07-20T11:31:05.849Z,100679.81
2018-07-20T11:33:10.678Z,100685.00
2018-07-20T11:35:15.482Z,100679.84
2018-07-20T11:37:20.175Z,100680.34
2018-07-20T11:39:24.809Z,100668.89
2018-07-20T11:41:29.430Z,100671.80
2018-07-20T11:43:34.154Z,100671.67
2018-07-20T11:45:38.459Z,100662.27
2018-07-20T11:47:43.116Z,100666.05
2018-07-20T11:49:47.819Z,100671.06
2018-07-20T11:51:52.593Z,100672.69
2018-07-20T11:53:57.487Z,100666.44
2018-07-20T11:56:02.296Z,100667.70
2018-07-20T11:58:06.974Z,100668.47
2018-07-20T12:00:11.638Z,100660.77
2018-07-20T12:02:16.428Z,100663.27
2018-07-20T12:04:21.075Z,100660.64
2018-07-20T12:06:25.705Z,100650.02
2018-07-20T12:08:30.357Z,100649.69
2018-07-20T12:10:35.008Z,100642.51
2018-07-20T12:12:39.677Z,100642.62
2018-07-20T12:14:44.403Z,100642.77
2018-07-20T12:16:49.136Z,100644.23
2018-07-20T12:18:53.949Z,100638.02
2018-07-20T12:20:58.702Z,100629.33
2018-07-20T12:23:03.537Z,100635.13
2018-07-20T12:25:08.258Z,100627.27
2018-07-20T12:27:13.017Z,100634.48
2018-07-20T12:29:17.843Z,100628.09
2018-07-20T12:31:22.497Z,100619.89
2018-07-20T12:33:27.312Z,100615.38
2018-07-20T12:35:32.052Z,100617.27
2018-07-20T12:37:37.114Z,100615.02
2018-07-20T12:39:41.792Z,100606.48
2018-07-20T12:41:47.039Z,100606.84
2018-07-20T12:43:51.734Z,100605.16
2018-07-20T12:45:56.448Z,100605.66
2018-07-20T12:48:01.509Z,100603.91
2018-07-20T12:50:06.502Z,100599.66
2018-07-20T12:52:11.158Z,100602.89
2018-07-20T12:54:15.913Z,100608.08
2018-07-20T12:56:20.686Z,100606.02
2018-07-20T12:58:25.603Z,100610.64
2018-07-20T13:00:30.326Z,100607.91
2018-07-20T13:02:34.958Z,100606.94
2018-07-20T13:04:39.629Z,100604.75
2018-07-20T13:06:43.973Z,100605.40
2018-07-20T13:08:48.706Z,100604.52
2018-07-20T13:10:53.463Z,100600.64
2018-07-20T13:12:58.254Z,100596.78
2018-07-20T13:15:02.988Z,100595.02
2018-07-20T13:17:07.789Z,100605.81
2018-07-20T13:19:12.448Z,100600.65
2018-07-20T13:21:17.259Z,100605.70
2018-07-20T13:23:22.101Z,100604.15
2018-07-20T13:25:26.885Z,100600.70
2018-07-20T13:27:31.707Z,100605.17
2018-07-20T13:29:36.449Z,100594.60
2018-07-20T13:31:41.300Z,100598.17
2018-07-20T13:33:46.116Z,100598.59
2018-07-20T13:35:50.897Z,100591.14
2018-07-20T13:37:55.598Z,100588.47
2018-07-20T13:40:00.281Z,100586.88
2018-07-20T13:42:05.061Z,100578.19
2018-07-20T13:44:09.750Z,100573.19
2018-07-20T13:46:14.467Z,100574.34
2018-07-20T13:48:19.347Z,100563.61
2018-07-20T13:50:24.095Z,100554.81
2018-07-20T13:52:28.764Z,100566.23
2018-07-20T13:54:33.591Z,100565.95
2018-07-20T13:56:38.894Z,100558.55
2018-07-20T13:58:43.780Z,100559.69
2018-07-20T14:00:48.771Z,100558.63
2018-07-20T14:02:53.623Z,100562.39
2018-07-20T14:04:58.336Z,100559.98
2018-07-20T14:07:03.006Z,100558.41
2018-07-20T14:09:08.728Z,100560.48
2018-07-20T14:11:13.436Z,100557.41
2018-07-20T14:13:18.157Z,100546.53
2018-07-20T14:15:23.057Z,100548.59
2018-07-20T14:17:28.016Z,100550.69
2018-07-20T14:19:35.255Z,100543.95
2018-07-20T14:21:40.524Z,100531.56
2018-07-20T14:23:45.271Z,100534.26
2018-07-20T14:25:50.025Z,100530.46
2018-07-20T14:27:54.774Z,100532.56
2018-07-20T14:29:59.458Z,100526.48
2018-07-20T14:32:04.529Z,100515.14
2018-07-20T14:34:09.328Z,100522.52
2018-07-20T14:36:14.084Z,100524.89
2018-07-20T14:38:18.993Z,100534.63
2018-07-20T14:40:23.788Z,100527.50
2018-07-20T14:42:28.509Z,100527.05
2018-07-20T14:44:33.268Z,100523.69
2018-07-20T14:46:38.096Z,100515.66
2018-07-20T14:50:42.905Z,100512.82
2018-07-20T14:52:47.695Z,100489.81
2018-07-20T14:54:52.633Z,100504.05
2018-07-20T14:56:57.508Z,100506.11
2018-07-20T14:59:02.406Z,100507.55
2018-07-20T15:01:07.350Z,100511.50
2018-07-20T15:03:12.260Z,100495.61
2018-07-20T15:05:16.994Z,100502.16
2018-07-20T15:07:21.711Z,100497.20
2018-07-20T15:09:26.495Z,100494.34
2018-07-20T15:11:31.282Z,100490.44
2018-07-20T15:13:36.043Z,100486.94
2018-07-20T15:15:40.918Z,100489.33
2018-07-20T15:17:45.698Z,100496.17
2018-07-20T15:19:50.463Z,100485.80
2018-07-20T15:21:55.196Z,100462.47
2018-07-20T15:23:59.891Z,100487.05
2018-07-20T15:26:04.599Z,100472.80
2018-07-20T15:28:09.458Z,100483.16
2018-07-20T15:30:14.337Z,100485.93
2018-07-20T15:32:19.156Z,100478.44
2018-07-20T15:34:23.973Z,100479.02
2018-07-20T15:36:28.696Z,100474.48
2018-07-20T15:38:33.514Z,100472.21
2018-07-20T15:40:38.266Z,100472.21
2018-07-20T15:42:43.377Z,100458.30
2018-07-20T15:44:48.332Z,100472.93
2018-07-20T15:46:53.342Z,100462.53
2018-07-20T15:48:57.859Z,100469.59
2018-07-20T15:51:02.652Z,100466.52
2018-07-20T15:53:37.360Z,100474.07
2018-07-20T15:55:12.388Z,100470.02
2018-07-20T15:57:17.142Z,100465.03
2018-07-20T15:59:21.928Z,100469.50
2018-07-20T16:01:26.649Z,100474.28
2018-07-20T16:03:31.358Z,100473.58
2018-07-20T16:05:36.072Z,100472.41
2018-07-20T16:07:40.892Z,100475.24
2018-07-20T16:09:45.617Z,100467.69
2018-07-20T16:11:50.262Z,100480.11
2018-07-20T16:13:54.959Z,100475.91
2018-07-20T16:15:59.799Z,100474.56
2018-07-20T16:18:04.836Z,100464.26
2018-07-20T16:20:09.553Z,100467.13
2018-07-20T16:22:14.265Z,100463.91
2018-07-20T16:24:18.966Z,100457.45
2018-07-20T16:26:23.704Z,100457.27
2018-07-20T16:28:28.569Z,100464.01
2018-07-20T16:30:33.439Z,100463.98
2018-07-20T16:32:38.154Z,100454.63
2018-07-20T16:34:43.036Z,100454.30
2018-07-20T16:36:47.757Z,100455.34
2018-07-20T16:38:52.534Z,100460.31
2018-07-20T16:40:57.457Z,100449.01
2018-07-20T16:43:02.486Z,100429.23
2018-07-20T16:45:07.618Z,100449.01
2018-07-20T16:47:12.583Z,100455.09
2018-07-20T16:49:17.371Z,100452.95
2018-07-20T16:51:22.064Z,100447.53
2018-07-20T16:53:26.938Z,100450.70
2018-07-20T16:55:31.802Z,100439.00
2018-07-20T16:57:36.430Z,100440.98
2018-07-20T16:59:40.741Z,100430.77
2018-07-20T17:01:45.539Z,100434.17
2018-07-20T17:03:50.378Z,100437.41
2018-07-20T17:05:55.156Z,100437.09
2018-07-20T17:07:59.911Z,100434.81
2018-07-20T17:10:05.075Z,100432.50
2018-07-20T17:12:09.998Z,100430.04
2018-07-20T17:14:15.039Z,100427.94
2018-07-20T17:16:19.894Z,100428.79
2018-07-20T17:18:24.642Z,100414.67
2018-07-20T17:20:29.387Z,100427.37
2018-07-20T17:22:34.062Z,100422.55
2018-07-20T17:24:39.436Z,100418.26
2018-07-20T17:26:44.200Z,100419.63
2018-07-20T17:28:49.360Z,100433.22
2018-07-20T17:30:55.032Z,100413.66
2018-07-20T17:32:59.914Z,100422.44
2018-07-20T17:35:04.958Z,100427.15
2018-07-20T17:37:10.780Z,100425.22
2018-07-20T17:39:15.721Z,100421.20
2018-07-20T17:41:20.463Z,100430.45
2018-07-20T17:43:25.383Z,100429.86
2018-07-20T17:45:30.108Z,100434.38
2018-07-20T17:47:34.837Z,100434.11
2018-07-20T17:49:39.602Z,100421.22
2018-07-20T17:51:44.379Z,100432.25
2018-07-20T17:53:49.093Z,100436.31
2018-07-20T17:55:53.800Z,100433.06
2018-07-20T17:57:58.672Z,100433.12
2018-07-20T18:00:05.285Z,100433.24
2018-07-20T18:02:13.988Z,100435.86
2018-07-20T18:04:18.828Z,100432.38
2018-07-20T18:06:23.549Z,100431.52
2018-07-20T18:08:28.244Z,100435.84
2018-07-20T18:10:33.192Z,100433.59
2018-07-20T18:12:37.545Z,100421.70
2018-07-20T18:14:42.298Z,100424.77
2018-07-20T18:16:47.089Z,100418.33
2018-07-20T18:18:51.828Z,100433.16
2018-07-20T18:20:56.508Z,100438.05
2018-07-20T18:23:01.253Z,100434.41
2018-07-20T18:25:06.669Z,100433.72
2018-07-20T18:27:11.722Z,100429.91
2018-07-20T18:29:16.541Z,100432.38
2018-07-20T18:31:21.632Z,100433.51
2018-07-20T18:33:26.478Z,100427.88
2018-07-20T18:35:31.428Z,100421.47
2018-07-20T18:37:36.444Z,100427.14
2018-07-20T18:39:41.382Z,100435.62
2018-07-20T18:41:46.622Z,100439.00
2018-07-20T18:43:51.380Z,100436.59
2018-07-20T18:45:56.095Z,100431.94
2018-07-20T18:48:00.960Z,100440.45
2018-07-20T18:50:08.338Z,100446.63
2018-07-20T18:52:13.391Z,100442.99
2018-07-20T18:54:18.256Z,100436.20
2018-07-20T18:56:23.061Z,100440.59
2018-07-20T18:58:27.904Z,100441.48
2018-07-20T19:00:32.597Z,100434.95
2018-07-20T19:02:37.278Z,100441.41
2018-07-20T19:06:59.413Z,100439.88
2018-07-20T19:09:11.761Z,100443.81
2018-07-20T19:11:25.156Z,100441.80
2018-07-20T19:13:44.274Z,100448.54
2018-07-20T19:15:50.384Z,100447.22
2018-07-20T19:17:57.399Z,100450.61
2018-07-20T19:20:02.169Z,100458.64
2018-07-20T19:22:20.024Z,100456.02
2018-07-20T19:24:34.948Z,100460.59
2018-07-20T19:26:47.093Z,100460.39
2018-07-20T19:28:51.864Z,100457.84
2018-07-20T19:30:56.533Z,100453.73
2018-07-20T19:33:02.423Z,100456.09
2018-07-20T19:35:07.411Z,100455.67
2018-07-20T19:37:12.309Z,100465.62
2018-07-20T19:39:18.320Z,100462.47
2018-07-20T19:41:23.124Z,100462.34
2018-07-20T19:43:27.877Z,100462.91
2018-07-20T19:45:32.786Z,100475.33
2018-07-20T19:47:37.746Z,100475.89
2018-07-20T19:49:42.670Z,100485.17
2018-07-20T19:51:47.374Z,100485.68
2018-07-20T19:53:52.149Z,100491.62
2018-07-20T19:55:56.850Z,100490.38
2018-07-20T19:58:01.565Z,100490.49
2018-07-20T20:00:09.141Z,100490.05
2018-07-20T20:02:13.753Z,100491.42
2018-07-20T20:04:18.559Z,100496.70
2018-07-20T20:06:23.416Z,100485.50
2018-07-20T20:08:28.653Z,100492.47
2018-07-20T20:10:33.581Z,100489.03
2018-07-20T20:12:39.657Z,100485.61
2018-07-20T20:14:44.585Z,100488.19
2018-07-20T20:16:49.891Z,100485.08
2018-07-20T20:18:56.660Z,100482.84
2018-07-20T20:21:01.523Z,100479.34
2018-07-20T20:23:06.712Z,100474.86
2018-07-20T20:25:13.366Z,100476.03
2018-07-20T20:27:21.405Z,100479.48
2018-07-20T20:29:26.252Z,100474.23
2018-07-20T20:31:30.942Z,100463.34
2018-07-20T20:33:35.725Z,100469.03
2018-07-20T20:35:40.644Z,100470.95
2018-07-20T20:37:46.194Z,100444.49
2018-07-20T20:39:51.013Z,100475.13
2018-07-20T20:41:56.279Z,100468.72
2018-07-20T20:44:01.325Z,100471.22
2018-07-20T20:46:06.213Z,100470.46
2018-07-20T20:48:10.934Z,100462.02
2018-07-20T20:50:15.714Z,100463.89
2018-07-20T20:52:21.429Z,100471.76
2018-07-20T20:54:26.199Z,100466.61
2018-07-20T20:56:30.897Z,100467.13
2018-07-20T20:58:35.786Z,100465.38
2018-07-20T21:00:40.689Z,100460.91
2018-07-20T21:02:45.593Z,100468.98
2018-07-20T21:04:50.399Z,100463.27
2018-07-20T21:06:55.465Z,100460.77
2018-07-20T21:09:00.218Z,100455.91
2018-07-20T21:11:04.922Z,100458.98
2018-07-20T21:13:09.864Z,100451.97
2018-07-20T21:15:14.579Z,100454.19
2018-07-20T21:17:19.453Z,100457.25
2018-07-20T21:19:24.446Z,100452.52
2018-07-20T21:21:29.306Z,100452.95
2018-07-20T21:23:34.054Z,100449.41
2018-07-20T21:25:38.756Z,100452.41
2018-07-20T21:27:43.602Z,100457.23
2018-07-20T21:29:48.292Z,100453.63
2018-07-20T21:31:53.821Z,100459.42
2018-07-20T21:33:58.479Z,100445.93
2018-07-20T21:36:03.341Z,100443.82
2018-07-20T21:38:08.875Z,100439.48
2018-07-20T21:40:13.669Z,100440.75
2018-07-20T21:42:18.404Z,100443.82
2018-07-20T21:44:23.592Z,100439.05
2018-07-20T21:46:28.411Z,100443.45
2018-07-20T21:48:33.234Z,100439.12
2018-07-20T21:50:38.078Z,100439.53
2018-07-20T21:52:42.798Z,100443.48
2018-07-20T21:54:47.438Z,100429.98
2018-07-20T21:56:52.286Z,100438.72
2018-07-20T21:58:57.058Z,100437.33
2018-07-20T22:01:01.868Z,100443.00
2018-07-20T22:03:06.639Z,100442.15
2018-07-20T22:05:11.336Z,100446.99
2018-07-20T22:07:16.037Z,100430.52
2018-07-20T22:09:20.839Z,100443.09
2018-07-20T22:11:25.482Z,100440.05
2018-07-20T22:13:30.290Z,100436.16
2018-07-20T22:15:35.185Z,100437.84
2018-07-20T22:17:39.924Z,100437.86
2018-07-20T22:19:44.580Z,100441.32
2018-07-20T22:21:49.372Z,100451.37
2018-07-20T22:23:54.032Z,100451.37
2018-07-20T22:25:58.711Z,100449.67
2018-07-20T22:28:03.497Z,100444.47
2018-07-20T22:30:10.164Z,100447.92
2018-07-20T22:32:14.805Z,100457.96
2018-07-20T22:34:19.563Z,100445.80
2018-07-20T22:36:24.382Z,100441.84
2018-07-20T22:38:29.505Z,100444.23
2018-07-20T22:40:34.245Z,100437.74
2018-07-20T22:42:38.987Z,100435.65
2018-07-20T22:44:43.701Z,100427.42
2018-07-20T22:46:48.431Z,100423.16
2018-07-20T22:48:53.063Z,100429.64
2018-07-20T22:50:57.684Z,100421.41
2018-07-20T22:53:02.424Z,100430.08
2018-07-20T22:55:07.092Z,100430.97
2018-07-20T22:57:11.985Z,100428.80
2018-07-20T22:59:16.705Z,100429.25
2018-07-20T23:01:21.438Z,100426.19
2018-07-20T23:03:26.308Z,100433.56
2018-07-20T23:05:31.064Z,100423.13
2018-07-20T23:07:35.707Z,100419.70
2018-07-20T23:09:40.401Z,100429.69
2018-07-20T23:11:45.164Z,100425.75
2018-07-20T23:13:49.765Z,100428.36
2018-07-20T23:15:54.387Z,100425.17
2018-07-20T23:17:59.178Z,100420.05
2018-07-20T23:20:03.897Z,100422.27
2018-07-20T23:22:08.534Z,100415.22
2018-07-20T23:24:13.258Z,100424.86
2018-07-20T23:26:17.961Z,100428.80
2018-07-20T23:28:22.614Z,100420.50
2018-07-20T23:30:27.426Z,100426.22
2018-07-20T23:32:32.078Z,100420.88
2018-07-20T23:34:36.832Z,100420.73
2018-07-20T23:36:41.570Z,100419.44
2018-07-20T23:38:46.618Z,100420.88
2018-07-20T23:40:51.245Z,100422.70
2018-07-20T23:42:55.910Z,100414.44
2018-07-20T23:45:00.594Z,100426.20
2018-07-20T23:47:05.377Z,100420.54
2018-07-20T23:49:10.058Z,100427.50
2018-07-20T23:51:14.673Z,100424.44
2018-07-20T23:53:20.231Z,100424.97